Detroit Metropolitan Wayne County Airport Detroit US
ICAO: KDTW
IATA: DTW
Category: Large
Scheduled Services: Yes

Elevation: 645 ft
TransAlt. 18000 ft.

Airport Communications:
APP:118.575
ATIS:133.675
PRE TAXI CLNC:120.65
DEP:118.575
GND:119.25
LANSING RDO:115.7
METRO TWR:118.4
UNICOM:122.95

KDTW Zoom In..

Runways:

(A) RW 03L length 8501 ft width 200 ft
---- / hdg 35

(B) RW 03R length 10001 ft width 150 ft
ILS 111.50 / hdg 35

(C) RW 04L length 10000 ft width 150 ft
ILS 111.95 / hdg 35

(D) RW 04R length 12003 ft width 200 ft
ILS 110.70 / hdg 35

(E) RW 09L length 8708 ft width 150 ft
---- / hdg 95

(F) RW 09R length 8500 ft width 150 ft
---- / hdg 95

(G) RW 21L length 10001 ft width 150 ft
ILS 111.50 / hdg 215

(H) RW 21R length 8501 ft width 200 ft
---- / hdg 215

(I) RW 22L length 12003 ft width 200 ft
ILS 110.70 / hdg 215

(J) RW 22R length 10000 ft width 150 ft
ILS 111.95 / hdg 215

(K) RW 27L length 8500 ft width 150 ft
ILS 110.15 / hdg 275

(L) RW 27R length 8708 ft width 150 ft
ILS 108.50 / hdg 275

Location; KDTW
Day. 22 / Time. 01.53 Zulu
* Altimeter: 30.07
* Temperature: 12° c. 53.6°f.
* Wind from: 000° Speed 00 kn.
Dewpoint: 08° c.
Visibility: 10 Statute Miles.
Clouds: Broken 1500 ft.
Clouds: Overcast 4500 ft.

KDTW 220153Z 00000KT 10SM BKN015 OVC045 12/08 A3007 RMK AO2 RAB21E37 SLP184 P0000 T01220078


Wind - Calm.

 
 
jpsmedia.com for Web Design SOUNDCLOUD worldairports.se 2018   terms of use